createdAt,value
2022-10-23T00:03:40.373Z,87.20
2022-10-23T00:07:41.996Z,87.02
2022-10-23T00:11:44.746Z,86.40
2022-10-23T00:15:46.423Z,85.95
2022-10-23T00:19:47.948Z,85.92
2022-10-23T00:23:49.756Z,85.77
2022-10-23T00:27:51.386Z,85.84
2022-10-23T00:31:52.912Z,85.66
2022-10-23T00:35:54.422Z,85.74
2022-10-23T00:39:56.287Z,85.96
2022-10-23T00:44:04.053Z,86.38
2022-10-23T00:48:05.771Z,86.58
2022-10-23T00:52:09.940Z,86.87
2022-10-23T00:56:12.800Z,86.61
2022-10-23T01:00:23.713Z,87.41
2022-10-23T01:04:29.756Z,87.64
2022-10-23T01:08:43.512Z,87.91
2022-10-23T01:13:02.302Z,87.95
2022-10-23T01:17:12.612Z,87.93
2022-10-23T01:21:23.825Z,88.18
2022-10-23T01:25:51.994Z,87.92
2022-10-23T01:30:07.523Z,88.33
2022-10-23T01:34:20.278Z,88.09
2022-10-23T01:38:25.837Z,88.36
2022-10-23T01:42:35.531Z,88.55
2022-10-23T01:46:37.545Z,88.34
2022-10-23T01:50:43.818Z,88.46
2022-10-23T01:54:47.327Z,88.52
2022-10-23T01:58:52.553Z,89.00
2022-10-23T02:02:58.643Z,88.68
2022-10-23T02:07:06.218Z,88.76
2022-10-23T02:11:11.219Z,88.76
2022-10-23T02:15:37.714Z,88.42
2022-10-23T02:20:05.039Z,88.62
2022-10-23T02:24:11.582Z,88.56
2022-10-23T02:28:25.104Z,88.51
2022-10-23T02:32:31.189Z,88.93
2022-10-23T02:36:33.008Z,88.56
2022-10-23T02:40:40.568Z,88.44
2022-10-23T02:44:57.979Z,88.30
2022-10-23T02:49:13.545Z,88.25
2022-10-23T02:53:44.391Z,88.38
2022-10-23T02:58:10.453Z,88.42
2022-10-23T03:02:20.996Z,88.71
2022-10-23T03:06:24.947Z,88.92
2022-10-23T03:10:26.436Z,89.48
2022-10-23T03:14:27.880Z,89.23
2022-10-23T03:18:29.380Z,88.97
2022-10-23T03:22:34.208Z,88.89
2022-10-23T03:26:35.823Z,89.26
2022-10-23T03:30:37.350Z,89.64
2022-10-23T03:34:39.068Z,89.50
2022-10-23T03:38:43.686Z,89.61
2022-10-23T03:42:45.560Z,89.65
2022-10-23T03:46:51.211Z,89.82
2022-10-23T03:50:52.893Z,89.83
2022-10-23T03:54:54.520Z,90.00
2022-10-23T03:58:56.070Z,90.13
2022-10-23T04:03:00.396Z,89.80
2022-10-23T04:07:02.932Z,89.99
2022-10-23T04:11:04.511Z,90.36
2022-10-23T04:15:16.849Z,89.71
2022-10-23T04:19:20.870Z,89.89
2022-10-23T04:23:22.502Z,89.94
2022-10-23T04:27:24.297Z,89.98
2022-10-23T04:31:26.186Z,90.11
2022-10-23T04:35:27.789Z,90.26
2022-10-23T04:39:29.756Z,90.10
2022-10-23T04:43:31.232Z,90.07
2022-10-23T04:47:32.734Z,90.00
2022-10-23T04:51:35.062Z,89.99
2022-10-23T04:55:55.492Z,89.97
2022-10-23T05:00:01.866Z,89.96
2022-10-23T05:04:10.370Z,90.42
2022-10-23T05:08:50.472Z,90.57
2022-10-23T05:13:19.872Z,90.47
2022-10-23T05:17:26.984Z,90.65
2022-10-23T05:21:31.314Z,90.44
2022-10-23T05:25:35.260Z,90.79
2022-10-23T05:29:47.581Z,90.72
2022-10-23T05:33:54.373Z,91.34
2022-10-23T05:37:58.965Z,90.94
2022-10-23T05:42:00.884Z,91.15
2022-10-23T05:46:06.232Z,90.90
2022-10-23T05:50:08.240Z,90.85
2022-10-23T05:54:44.928Z,90.77
2022-10-23T05:58:56.583Z,90.79
2022-10-23T06:03:16.462Z,90.73
2022-10-23T06:07:24.445Z,90.68
2022-10-23T06:11:26.341Z,90.02
2022-10-23T06:15:34.208Z,89.72
2022-10-23T06:19:43.779Z,89.48
2022-10-23T06:23:46.516Z,88.74
2022-10-23T06:27:53.832Z,88.29
2022-10-23T06:31:55.580Z,87.93
2022-10-23T06:35:58.508Z,86.86
2022-10-23T06:40:00.197Z,86.25
2022-10-23T06:44:20.750Z,85.42
2022-10-23T06:48:26.552Z,85.13
2022-10-23T06:52:46.401Z,84.29
2022-10-23T06:56:51.382Z,82.61
2022-10-23T07:01:01.949Z,81.49
2022-10-23T07:05:04.477Z,79.72
2022-10-23T07:09:06.144Z,77.76
2022-10-23T07:13:26.101Z,76.32
2022-10-23T07:17:34.923Z,74.10
2022-10-23T07:21:37.808Z,72.25
2022-10-23T07:26:11.498Z,70.59
2022-10-23T07:30:14.405Z,68.51
2022-10-23T07:34:24.887Z,66.92
2022-10-23T07:38:44.612Z,64.94
2022-10-23T07:42:46.294Z,64.68
2022-10-23T07:46:49.802Z,63.21
2022-10-23T07:50:51.923Z,60.73
2022-10-23T07:54:53.859Z,58.04
2022-10-23T07:58:56.349Z,55.89
2022-10-23T08:02:57.905Z,58.50
2022-10-23T08:07:01.074Z,59.17
2022-10-23T08:11:06.344Z,56.71
2022-10-23T08:15:18.545Z,54.26
2022-10-23T08:19:27.934Z,52.47
2022-10-23T08:23:30.985Z,51.25
2022-10-23T08:27:33.589Z,51.07
2022-10-23T08:31:35.831Z,50.22
2022-10-23T08:35:46.286Z,49.05
2022-10-23T08:39:55.895Z,50.93
2022-10-23T08:44:28.046Z,47.82
2022-10-23T08:48:42.639Z,46.53
2022-10-23T08:53:29.850Z,45.21
2022-10-23T08:57:43.834Z,41.58
2022-10-23T09:02:11.715Z,43.32
2022-10-23T09:06:31.023Z,43.01
2022-10-23T09:10:52.744Z,43.65
2022-10-23T09:15:19.656Z,41.90
2022-10-23T09:19:27.267Z,39.43
2022-10-23T09:23:29.044Z,38.30
2022-10-23T09:27:30.832Z,37.46
2022-10-23T09:31:32.477Z,37.76
2022-10-23T09:35:33.971Z,37.54
2022-10-23T09:39:36.868Z,37.58
2022-10-23T09:43:38.502Z,38.05
2022-10-23T09:47:42.229Z,35.84
2022-10-23T09:52:04.130Z,37.55
2022-10-23T10:00:53.399Z,36.83
2022-10-23T10:05:43.833Z,36.36
2022-10-23T10:09:56.528Z,37.02
2022-10-23T10:14:19.257Z,37.51
2022-10-23T10:18:26.405Z,37.32
2022-10-23T10:22:33.877Z,34.93
2022-10-23T10:26:53.512Z,35.87
2022-10-23T10:31:10.474Z,35.62
2022-10-23T10:35:33.908Z,35.10
2022-10-23T10:39:44.292Z,34.33
2022-10-23T10:44:17.608Z,33.99
2022-10-23T10:48:52.857Z,36.02
2022-10-23T10:53:23.464Z,34.16
2022-10-23T10:57:39.158Z,32.69
2022-10-23T11:02:12.672Z,33.81
2022-10-23T11:06:19.086Z,33.64
2022-10-23T11:10:47.652Z,33.32
2022-10-23T11:14:50.313Z,34.20
2022-10-23T11:19:11.301Z,34.58
2022-10-23T11:24:12.529Z,35.65
2022-10-23T11:28:48.328Z,35.81
2022-10-23T11:33:16.842Z,37.00
2022-10-23T11:37:20.426Z,38.80
2022-10-23T11:41:33.717Z,40.00
2022-10-23T11:45:38.411Z,38.24
2022-10-23T11:49:40.023Z,34.93
2022-10-23T11:53:41.606Z,34.27
2022-10-23T11:57:46.125Z,39.38
2022-10-23T12:01:50.242Z,42.00
2022-10-23T12:06:02.893Z,44.21
2022-10-23T12:10:26.863Z,47.79
2022-10-23T12:14:39.386Z,48.31
2022-10-23T12:18:48.112Z,50.44
2022-10-23T12:23:05.908Z,51.63
2022-10-23T12:27:07.576Z,51.04
2022-10-23T12:31:27.652Z,50.06
2022-10-23T12:35:50.685Z,50.44
2022-10-23T12:39:56.661Z,51.34
2022-10-23T12:44:03.987Z,51.85
2022-10-23T12:48:05.870Z,51.45
2022-10-23T12:52:17.210Z,49.23
2022-10-23T12:56:19.091Z,47.08
2022-10-23T13:00:24.115Z,47.59
2022-10-23T13:04:29.390Z,48.58
2022-10-23T13:08:42.983Z,48.79
2022-10-23T13:13:13.421Z,48.69
2022-10-23T13:17:14.973Z,47.22
2022-10-23T13:21:23.041Z,46.05
2022-10-23T13:25:31.173Z,46.46
2022-10-23T13:29:34.650Z,47.60
2022-10-23T13:33:43.561Z,48.76
2022-10-23T13:41:51.513Z,48.40
2022-10-23T13:45:53.733Z,48.31
2022-10-23T13:49:55.428Z,49.36
2022-10-23T13:53:57.668Z,48.49
2022-10-23T13:57:59.337Z,47.13
2022-10-23T14:02:01.001Z,47.92
2022-10-23T14:06:02.792Z,49.83
2022-10-23T14:10:05.094Z,52.24
2022-10-23T14:14:07.131Z,54.68
2022-10-23T14:18:08.676Z,56.52
2022-10-23T14:22:10.461Z,55.49
2022-10-23T14:26:15.252Z,53.55
2022-10-23T14:30:16.865Z,53.63
2022-10-23T14:34:18.677Z,56.10
2022-10-23T14:38:20.303Z,57.82
2022-10-23T14:42:22.045Z,59.78
2022-10-23T14:46:25.294Z,60.35
2022-10-23T14:50:27.628Z,61.42
2022-10-23T14:54:31.142Z,62.58
2022-10-23T14:58:32.753Z,62.85
2022-10-23T15:02:34.412Z,63.98
2022-10-23T15:06:36.843Z,64.43
2022-10-23T15:10:39.100Z,64.82
2022-10-23T15:14:40.718Z,65.29
2022-10-23T15:18:42.247Z,66.16
2022-10-23T15:22:44.143Z,66.62
2022-10-23T15:26:46.488Z,67.16
2022-10-23T15:30:48.113Z,67.72
2022-10-23T15:34:50.195Z,67.92
2022-10-23T15:38:52.010Z,68.26
2022-10-23T15:42:53.499Z,68.35
2022-10-23T15:46:56.974Z,68.69
2022-10-23T15:50:59.131Z,68.53
2022-10-23T15:55:00.692Z,69.09
2022-10-23T15:59:02.861Z,69.35
2022-10-23T16:03:04.440Z,69.58
2022-10-23T16:07:07.110Z,69.42
2022-10-23T16:11:20.991Z,69.64
2022-10-23T16:15:22.643Z,69.73
2022-10-23T16:19:24.429Z,69.76
2022-10-23T16:23:28.210Z,70.25
2022-10-23T16:27:29.746Z,70.17
2022-10-23T16:31:31.907Z,70.16
2022-10-23T16:35:33.504Z,70.20
2022-10-23T16:39:43.862Z,70.51
2022-10-23T16:44:23.827Z,70.66
2022-10-23T16:48:38.308Z,71.42
2022-10-23T16:52:39.910Z,71.11
2022-10-23T16:56:41.410Z,70.91
2022-10-23T17:00:43.093Z,71.21
2022-10-23T17:04:44.656Z,71.30
2022-10-23T17:08:46.785Z,71.36
2022-10-23T17:12:49.915Z,71.67
2022-10-23T17:16:52.232Z,72.30
2022-10-23T17:20:57.595Z,72.79
2022-10-23T17:24:59.216Z,72.85
2022-10-23T17:29:04.248Z,73.42
2022-10-23T17:33:06.041Z,73.41
2022-10-23T17:37:07.884Z,73.62
2022-10-23T17:41:11.157Z,73.83
2022-10-23T17:45:12.684Z,74.29
2022-10-23T17:49:14.308Z,74.35
2022-10-23T17:53:15.853Z,74.80
2022-10-23T17:57:20.145Z,74.99
2022-10-23T18:01:25.072Z,75.37
2022-10-23T18:05:27.092Z,75.66
2022-10-23T18:09:28.635Z,76.22
2022-10-23T18:13:32.362Z,76.82
2022-10-23T18:17:34.973Z,76.83
2022-10-23T18:21:37.759Z,77.56
2022-10-23T18:25:42.815Z,77.50
2022-10-23T18:29:44.692Z,77.96
2022-10-23T18:33:46.929Z,77.96
2022-10-23T18:37:48.725Z,77.93
2022-10-23T18:41:55.002Z,77.78
2022-10-23T18:45:56.694Z,77.69
2022-10-23T18:49:58.319Z,77.95
2022-10-23T18:54:03.159Z,78.25
2022-10-23T18:58:04.673Z,77.99
2022-10-23T19:02:06.621Z,77.85
2022-10-23T19:06:08.504Z,78.37
2022-10-23T19:10:15.618Z,78.93
2022-10-23T19:14:17.126Z,79.26
2022-10-23T19:18:18.942Z,78.84
2022-10-23T19:22:20.543Z,78.43
2022-10-23T19:26:22.228Z,78.95
2022-10-23T19:30:24.975Z,78.43
2022-10-23T19:34:26.788Z,78.82
2022-10-23T19:38:28.275Z,78.86
2022-10-23T19:42:30.000Z,78.75
2022-10-23T19:46:31.735Z,78.54
2022-10-23T19:50:33.422Z,77.80
2022-10-23T19:54:35.106Z,78.15
2022-10-23T19:58:37.520Z,77.67
2022-10-23T20:02:39.204Z,77.30
2022-10-23T20:06:41.245Z,77.38
2022-10-23T20:10:44.346Z,77.76
2022-10-23T20:14:46.056Z,76.62
2022-10-23T20:18:48.544Z,77.02
2022-10-23T20:22:54.570Z,76.34
2022-10-23T20:26:57.220Z,76.14
2022-10-23T20:30:58.734Z,76.64
2022-10-23T20:35:00.632Z,76.42
2022-10-23T20:39:06.027Z,75.87
2022-10-23T20:43:07.697Z,75.94
2022-10-23T20:47:09.205Z,74.66
2022-10-23T20:51:17.371Z,75.02
2022-10-23T20:55:19.596Z,74.68
2022-10-23T20:59:21.406Z,74.69
2022-10-23T21:03:26.135Z,74.69
2022-10-23T21:07:27.720Z,74.83
2022-10-23T21:11:29.639Z,74.45
2022-10-23T21:15:31.233Z,74.37
2022-10-23T21:19:32.909Z,73.87
2022-10-23T21:23:35.837Z,74.00
2022-10-23T21:27:37.434Z,73.32
2022-10-23T21:31:39.255Z,73.72
2022-10-23T21:35:47.512Z,74.30
2022-10-23T21:39:59.790Z,76.45
2022-10-23T21:44:05.471Z,77.53
2022-10-23T21:48:07.369Z,78.08
2022-10-23T21:52:08.816Z,79.13
2022-10-23T21:56:22.756Z,81.01
2022-10-23T22:00:24.352Z,82.26
2022-10-23T22:04:25.971Z,81.18
2022-10-23T22:08:27.647Z,81.36
2022-10-23T22:12:29.179Z,81.55
2022-10-23T22:16:31.483Z,82.89
2022-10-23T22:20:33.055Z,85.44
2022-10-23T22:24:36.516Z,86.36
2022-10-23T22:28:37.977Z,87.35
2022-10-23T22:32:39.732Z,86.57
2022-10-23T22:36:41.828Z,86.84
2022-10-23T22:40:46.644Z,87.49
2022-10-23T22:44:48.465Z,86.73
2022-10-23T22:48:49.979Z,86.17
2022-10-23T22:52:52.152Z,86.44
2022-10-23T22:56:53.629Z,85.47
2022-10-23T23:01:13.965Z,84.82
2022-10-23T23:05:15.591Z,83.55
2022-10-23T23:09:18.643Z,83.57
2022-10-23T23:13:20.276Z,83.58
2022-10-23T23:17:22.547Z,83.10
2022-10-23T23:21:24.250Z,83.08
2022-10-23T23:25:25.790Z,82.51
2022-10-23T23:29:29.327Z,83.18
2022-10-23T23:33:30.939Z,82.32
2022-10-23T23:37:32.417Z,82.51
2022-10-23T23:41:33.990Z,83.31
2022-10-23T23:45:35.493Z,83.17
2022-10-23T23:49:36.943Z,83.43
2022-10-23T23:53:38.515Z,83.81
2022-10-23T23:57:40.023Z,83.40
